sensor_id;sensor_type;location;lat;lon;timestamp;pressure;altitude;pressure_sealevel;temperature;humidity
52927;BME280;40783;49.710;8.842;2023-04-28T00:01:52;98914.63;;;10.02;100.00
52927;BME280;40783;49.710;8.842;2023-04-28T00:04:18;98905.63;;;10.03;100.00
52927;BME280;40783;49.710;8.842;2023-04-28T00:06:43;98898.91;;;9.99;100.00
52927;BME280;40783;49.710;8.842;2023-04-28T00:09:09;98902.91;;;9.94;100.00
52927;BME280;40783;49.710;8.842;2023-04-28T00:11:36;98901.72;;;9.97;100.00
52927;BME280;40783;49.710;8.842;2023-04-28T00:14:01;98890.91;;;10.07;100.00
52927;BME280;40783;49.710;8.842;2023-04-28T00:16:26;98893.03;;;9.95;100.00
52927;BME280;40783;49.710;8.842;2023-04-28T00:18:54;98892.00;;;9.88;100.00
52927;BME280;40783;49.710;8.842;2023-04-28T00:21:23;98891.84;;;9.89;100.00
52927;BME280;40783;49.710;8.842;2023-04-28T00:23:50;98895.16;;;9.83;100.00
52927;BME280;40783;49.710;8.842;2023-04-28T00:26:18;98883.81;;;9.81;100.00
52927;BME280;40783;49.710;8.842;2023-04-28T00:28:46;98875.47;;;9.84;100.00
52927;BME280;40783;49.710;8.842;2023-04-28T00:31:14;98890.97;;;9.80;100.00
52927;BME280;40783;49.710;8.842;2023-04-28T00:33:45;98894.97;;;9.76;100.00
52927;BME280;40783;49.710;8.842;2023-04-28T00:36:12;98885.44;;;9.74;100.00
52927;BME280;40783;49.710;8.842;2023-04-28T00:38:38;98888.47;;;9.79;100.00
52927;BME280;40783;49.710;8.842;2023-04-28T00:41:03;98888.66;;;9.86;100.00
52927;BME280;40783;49.710;8.842;2023-04-28T00:43:29;98888.34;;;9.89;100.00
52927;BME280;40783;49.710;8.842;2023-04-28T00:45:54;98876.19;;;9.94;100.00
52927;BME280;40783;49.710;8.842;2023-04-28T00:48:20;98879.03;;;10.01;100.00
52927;BME280;40783;49.710;8.842;2023-04-28T00:50:49;98866.84;;;9.99;100.00
52927;BME280;40783;49.710;8.842;2023-04-28T00:53:14;98861.34;;;9.65;100.00
52927;BME280;40783;49.710;8.842;2023-04-28T00:55:42;98847.72;;;9.77;100.00
52927;BME280;40783;49.710;8.842;2023-04-28T00:58:08;98843.06;;;9.79;100.00
52927;BME280;40783;49.710;8.842;2023-04-28T01:00:36;98843.66;;;9.64;100.00
52927;BME280;40783;49.710;8.842;2023-04-28T01:03:01;98837.91;;;9.77;100.00
52927;BME280;40783;49.710;8.842;2023-04-28T01:05:30;98834.75;;;9.82;100.00
52927;BME280;40783;49.710;8.842;2023-04-28T01:07:55;98831.06;;;9.83;100.00
52927;BME280;40783;49.710;8.842;2023-04-28T01:10:21;98823.72;;;9.85;100.00
52927;BME280;40783;49.710;8.842;2023-04-28T01:12:46;98819.41;;;9.92;100.00
52927;BME280;40783;49.710;8.842;2023-04-28T01:15:19;98817.09;;;9.98;100.00
52927;BME280;40783;49.710;8.842;2023-04-28T01:17:46;98810.94;;;10.05;100.00
52927;BME280;40783;49.710;8.842;2023-04-28T01:20:12;98814.28;;;10.07;100.00
52927;BME280;40783;49.710;8.842;2023-04-28T01:22:39;98813.28;;;10.08;100.00
52927;BME280;40783;49.710;8.842;2023-04-28T01:25:05;98794.72;;;10.07;100.00
52927;BME280;40783;49.710;8.842;2023-04-28T01:27:30;98797.75;;;10.12;100.00
52927;BME280;40783;49.710;8.842;2023-04-28T01:30:00;98805.75;;;10.04;100.00
52927;BME280;40783;49.710;8.842;2023-04-28T01:32:28;98795.56;;;9.99;100.00
52927;BME280;40783;49.710;8.842;2023-04-28T01:34:53;98788.38;;;10.00;100.00
52927;BME280;40783;49.710;8.842;2023-04-28T01:37:21;98788.06;;;10.03;100.00
52927;BME280;40783;49.710;8.842;2023-04-28T01:39:46;98787.75;;;10.06;100.00
52927;BME280;40783;49.710;8.842;2023-04-28T01:42:14;98784.38;;;10.12;100.00
52927;BME280;40783;49.710;8.842;2023-04-28T01:44:39;98779.72;;;10.14;100.00
52927;BME280;40783;49.710;8.842;2023-04-28T01:47:07;98784.41;;;10.20;100.00
52927;BME280;40783;49.710;8.842;2023-04-28T01:49:32;98783.06;;;10.16;100.00
52927;BME280;40783;49.710;8.842;2023-04-28T01:51:57;98782.38;;;10.14;100.00
52927;BME280;40783;49.710;8.842;2023-04-28T01:54:47;98781.06;;;10.18;100.00
52927;BME280;40783;49.710;8.842;2023-04-28T01:57:12;98776.22;;;10.14;100.00
52927;BME280;40783;49.710;8.842;2023-04-28T01:59:38;98772.38;;;10.16;100.00
52927;BME280;40783;49.710;8.842;2023-04-28T02:02:03;98779.06;;;10.20;100.00
52927;BME280;40783;49.710;8.842;2023-04-28T02:04:30;98785.06;;;10.22;100.00
52927;BME280;40783;49.710;8.842;2023-04-28T02:06:56;98781.59;;;10.22;100.00
52927;BME280;40783;49.710;8.842;2023-04-28T02:09:21;98789.75;;;10.20;100.00
52927;BME280;40783;49.710;8.842;2023-04-28T02:11:46;98789.75;;;10.20;100.00
52927;BME280;40783;49.710;8.842;2023-04-28T02:14:11;98782.41;;;10.22;100.00
52927;BME280;40783;49.710;8.842;2023-04-28T02:16:37;98783.06;;;10.24;100.00
52927;BME280;40783;49.710;8.842;2023-04-28T02:19:02;98780.41;;;10.24;100.00
52927;BME280;40783;49.710;8.842;2023-04-28T02:21:30;98771.38;;;10.25;100.00
52927;BME280;40783;49.710;8.842;2023-04-28T02:23:56;98772.06;;;10.28;100.00
52927;BME280;40783;49.710;8.842;2023-04-28T02:26:21;98769.06;;;10.31;100.00
52927;BME280;40783;49.710;8.842;2023-04-28T02:28:50;98783.41;;;10.30;100.00
52927;BME280;40783;49.710;8.842;2023-04-28T02:31:20;98774.41;;;10.31;100.00
52927;BME280;40783;49.710;8.842;2023-04-28T02:33:47;98782.75;;;10.36;100.00
52927;BME280;40783;49.710;8.842;2023-04-28T02:36:13;98776.06;;;10.32;100.00
52927;BME280;40783;49.710;8.842;2023-04-28T02:38:38;98783.09;;;10.33;100.00
52927;BME280;40783;49.710;8.842;2023-04-28T02:41:06;98787.47;;;10.42;100.00
52927;BME280;40783;49.710;8.842;2023-04-28T02:43:34;98789.16;;;10.43;100.00
52927;BME280;40783;49.710;8.842;2023-04-28T02:46:02;98785.63;;;10.43;100.00
52927;BME280;40783;49.710;8.842;2023-04-28T02:48:27;98777.78;;;10.41;100.00
52927;BME280;40783;49.710;8.842;2023-04-28T02:50:58;98783.81;;;10.43;100.00
52927;BME280;40783;49.710;8.842;2023-04-28T02:53:26;98776.94;;;10.41;100.00
52927;BME280;40783;49.710;8.842;2023-04-28T02:55:51;98774.78;;;10.44;100.00
52927;BME280;40783;49.710;8.842;2023-04-28T02:58:16;98775.09;;;10.41;100.00
52927;BME280;40783;49.710;8.842;2023-04-28T03:00:42;98778.44;;;10.43;100.00
52927;BME280;40783;49.710;8.842;2023-04-28T03:03:10;98757.56;;;10.47;100.00
52927;BME280;40783;49.710;8.842;2023-04-28T03:05:38;98769.44;;;10.52;100.00
52927;BME280;40783;49.710;8.842;2023-04-28T03:08:03;98760.06;;;10.48;100.00
52927;BME280;40783;49.710;8.842;2023-04-28T03:10:31;98755.41;;;10.42;100.00
52927;BME280;40783;49.710;8.842;2023-04-28T03:12:57;98746.53;;;10.42;100.00
52927;BME280;40783;49.710;8.842;2023-04-28T03:15:25;98757.06;;;10.43;100.00
52927;BME280;40783;49.710;8.842;2023-04-28T03:17:50;98758.75;;;10.44;100.00
52927;BME280;40783;49.710;8.842;2023-04-28T03:20:16;98751.72;;;10.43;100.00
52927;BME280;40783;49.710;8.842;2023-04-28T03:22:41;98748.03;;;10.44;100.00
52927;BME280;40783;49.710;8.842;2023-04-28T03:25:08;98741.03;;;10.43;100.00
52927;BME280;40783;49.710;8.842;2023-04-28T03:27:36;98742.19;;;10.41;100.00
52927;BME280;40783;49.710;8.842;2023-04-28T03:30:02;98749.03;;;10.43;100.00
52927;BME280;40783;49.710;8.842;2023-04-28T03:32:28;98751.72;;;10.43;100.00
52927;BME280;40783;49.710;8.842;2023-04-28T03:34:53;98751.00;;;10.33;100.00
52927;BME280;40783;49.710;8.842;2023-04-28T03:37:20;98733.63;;;10.29;100.00
52927;BME280;40783;49.710;8.842;2023-04-28T03:39:46;98724.63;;;10.30;100.00
52927;BME280;40783;49.710;8.842;2023-04-28T03:42:13;98730.28;;;10.27;100.00
52927;BME280;40783;49.710;8.842;2023-04-28T03:44:38;98732.31;;;10.24;100.00
52927;BME280;40783;49.710;8.842;2023-04-28T03:47:04;98733.50;;;10.30;100.00
52927;BME280;40783;49.710;8.842;2023-04-28T03:49:29;98734.97;;;10.33;100.00
52927;BME280;40783;49.710;8.842;2023-04-28T03:51:55;98730.34;;;10.43;100.00
52927;BME280;40783;49.710;8.842;2023-04-28T03:54:20;98735.34;;;10.46;100.00
52927;BME280;40783;49.710;8.842;2023-04-28T03:56:47;98732.34;;;10.41;100.00
52927;BME280;40783;49.710;8.842;2023-04-28T03:59:15;98734.00;;;10.42;100.00
52927;BME280;40783;49.710;8.842;2023-04-28T04:01:45;98724.66;;;10.46;100.00
52927;BME280;40783;49.710;8.842;2023-04-28T04:04:11;98712.28;;;10.45;100.00
52927;BME280;40783;49.710;8.842;2023-04-28T04:06:36;98713.28;;;10.52;100.00
52927;BME280;40783;49.710;8.842;2023-04-28T04:09:01;98711.28;;;10.54;100.00
52927;BME280;40783;49.710;8.842;2023-04-28T04:11:26;98700.94;;;10.51;100.00
52927;BME280;40783;49.710;8.842;2023-04-28T04:13:52;98701.75;;;10.52;100.00
52927;BME280;40783;49.710;8.842;2023-04-28T04:16:17;98695.91;;;10.48;100.00
52927;BME280;40783;49.710;8.842;2023-04-28T04:18:42;98682.88;;;10.53;100.00
52927;BME280;40783;49.710;8.842;2023-04-28T04:21:07;98680.88;;;10.56;100.00
52927;BME280;40783;49.710;8.842;2023-04-28T04:23:33;98684.56;;;10.54;100.00
52927;BME280;40783;49.710;8.842;2023-04-28T04:25:58;98689.56;;;10.58;100.00
52927;BME280;40783;49.710;8.842;2023-04-28T04:28:26;98682.53;;;10.57;100.00
52927;BME280;40783;49.710;8.842;2023-04-28T04:30:51;98686.22;;;10.56;100.00
52927;BME280;40783;49.710;8.842;2023-04-28T04:33:16;98678.88;;;10.58;100.00
52927;BME280;40783;49.710;8.842;2023-04-28T04:35:42;98673.84;;;10.54;100.00
52927;BME280;40783;49.710;8.842;2023-04-28T04:38:09;98679.88;;;10.57;100.00
52927;BME280;40783;49.710;8.842;2023-04-28T04:40:37;98672.66;;;10.57;100.00
52927;BME280;40783;49.710;8.842;2023-04-28T04:43:04;98663.63;;;10.58;100.00
52927;BME280;40783;49.710;8.842;2023-04-28T04:45:30;98665.63;;;10.64;100.00
52927;BME280;40783;49.710;8.842;2023-04-28T04:47:55;98669.78;;;10.67;100.00
52927;BME280;40783;49.710;8.842;2023-04-28T04:50:20;98669.13;;;10.73;100.00
52927;BME280;40783;49.710;8.842;2023-04-28T04:52:49;98674.47;;;10.73;100.00
52927;BME280;40783;49.710;8.842;2023-04-28T04:55:19;98676.66;;;10.78;100.00
52927;BME280;40783;49.710;8.842;2023-04-28T04:57:47;98676.78;;;10.76;100.00
52927;BME280;40783;49.710;8.842;2023-04-28T05:00:18;98672.78;;;10.80;100.00
52927;BME280;40783;49.710;8.842;2023-04-28T05:02:44;98672.44;;;10.83;100.00
52927;BME280;40783;49.710;8.842;2023-04-28T05:05:09;98665.06;;;10.86;100.00
52927;BME280;40783;49.710;8.842;2023-04-28T05:07:36;98677.75;;;11.00;100.00
52927;BME280;40783;49.710;8.842;2023-04-28T05:10:04;98675.38;;;11.05;100.00
52927;BME280;40783;49.710;8.842;2023-04-28T05:12:31;98675.97;;;11.16;100.00
52927;BME280;40783;49.710;8.842;2023-04-28T05:14:58;98674.28;;;11.23;100.00
52927;BME280;40783;49.710;8.842;2023-04-28T05:17:24;98671.94;;;11.28;100.00
52927;BME280;40783;49.710;8.842;2023-04-28T05:19:51;98659.84;;;11.32;100.00
52927;BME280;40783;49.710;8.842;2023-04-28T05:22:19;98662.50;;;11.40;100.00
52927;BME280;40783;49.710;8.842;2023-04-28T05:24:44;98665.13;;;11.49;100.00
52927;BME280;40783;49.710;8.842;2023-04-28T05:27:12;98669.78;;;11.55;100.00
52927;BME280;40783;49.710;8.842;2023-04-28T05:29:42;98670.75;;;11.62;100.00
52927;BME280;40783;49.710;8.842;2023-04-28T05:32:07;98673.47;;;11.54;100.00
52927;BME280;40783;49.710;8.842;2023-04-28T05:34:36;98680.34;;;11.48;100.00
52927;BME280;40783;49.710;8.842;2023-04-28T05:37:02;98675.91;;;11.32;100.00
52927;BME280;40783;49.710;8.842;2023-04-28T05:39:27;98683.78;;;11.34;100.00
52927;BME280;40783;49.710;8.842;2023-04-28T05:41:52;98673.94;;;11.26;100.00
52927;BME280;40783;49.710;8.842;2023-04-28T05:44:22;98673.50;;;11.14;100.00
52927;BME280;40783;49.710;8.842;2023-04-28T05:46:50;98673.81;;;11.19;100.00
52927;BME280;40783;49.710;8.842;2023-04-28T05:49:17;98652.22;;;11.21;100.00
52927;BME280;40783;49.710;8.842;2023-04-28T05:51:43;98665.66;;;11.12;100.00
52927;BME280;40783;49.710;8.842;2023-04-28T05:54:08;98659.94;;;11.16;100.00
52927;BME280;40783;49.710;8.842;2023-04-28T05:56:36;98663.25;;;11.18;100.00
52927;BME280;40783;49.710;8.842;2023-04-28T05:59:04;98671.63;;;11.23;100.00
52927;BME280;40783;49.710;8.842;2023-04-28T06:01:32;98671.25;;;11.26;100.00
52927;BME280;40783;49.710;8.842;2023-04-28T06:03:57;98671.63;;;11.23;100.00
52927;BME280;40783;49.710;8.842;2023-04-28T06:06:28;98676.28;;;11.29;100.00
52927;BME280;40783;49.710;8.842;2023-04-28T06:08:53;98684.34;;;11.21;100.00
52927;BME280;40783;49.710;8.842;2023-04-28T06:11:19;98692.53;;;11.19;100.00
52927;BME280;40783;49.710;8.842;2023-04-28T06:13:47;98688.34;;;11.17;100.00
52927;BME280;40783;49.710;8.842;2023-04-28T06:16:13;98689.22;;;11.17;100.00
52927;BME280;40783;49.710;8.842;2023-04-28T06:18:41;98689.69;;;11.21;100.00
52927;BME280;40783;49.710;8.842;2023-04-28T06:21:06;98695.72;;;11.14;100.00
52927;BME280;40783;49.710;8.842;2023-04-28T06:23:31;98695.38;;;11.18;100.00
52927;BME280;40783;49.710;8.842;2023-04-28T06:25:57;98701.06;;;11.14;100.00
52927;BME280;40783;49.710;8.842;2023-04-28T06:28:22;98695.72;;;11.14;100.00
52927;BME280;40783;49.710;8.842;2023-04-28T06:30:50;98691.56;;;11.12;100.00
52927;BME280;40783;49.710;8.842;2023-04-28T06:33:17;98694.44;;;11.10;100.00
52927;BME280;40783;49.710;8.842;2023-04-28T06:35:43;98697.13;;;11.02;100.00
52927;BME280;40783;49.710;8.842;2023-04-28T06:38:08;98703.13;;;11.12;100.00
52927;BME280;40783;49.710;8.842;2023-04-28T06:40:35;98709.78;;;11.17;100.00
52927;BME280;40783;49.710;8.842;2023-04-28T06:43:01;98716.53;;;11.04;100.00
52927;BME280;40783;49.710;8.842;2023-04-28T06:45:28;98711.09;;;11.21;100.00
52927;BME280;40783;49.710;8.842;2023-04-28T06:47:54;98705.41;;;11.24;100.00
52927;BME280;40783;49.710;8.842;2023-04-28T06:50:20;98700.13;;;11.07;100.00
52927;BME280;40783;49.710;8.842;2023-04-28T06:52:45;98708.47;;;11.12;100.00
52927;BME280;40783;49.710;8.842;2023-04-28T06:55:14;98706.44;;;11.14;100.00
52927;BME280;40783;49.710;8.842;2023-04-28T06:57:45;98704.75;;;11.13;100.00
52927;BME280;40783;49.710;8.842;2023-04-28T07:00:11;98711.16;;;11.12;100.00
52927;BME280;40783;49.710;8.842;2023-04-28T07:02:37;98710.63;;;11.17;100.00
52927;BME280;40783;49.710;8.842;2023-04-28T07:05:05;98717.78;;;11.25;100.00
52927;BME280;40783;49.710;8.842;2023-04-28T07:07:31;98708.09;;;11.16;100.00
52927;BME280;40783;49.710;8.842;2023-04-28T07:09:56;98704.28;;;11.10;100.00
52927;BME280;40783;49.710;8.842;2023-04-28T07:12:23;98699.97;;;11.01;100.00
52927;BME280;40783;49.710;8.842;2023-04-28T07:14:53;98701.44;;;11.11;100.00
52927;BME280;40783;49.710;8.842;2023-04-28T07:17:19;98708.75;;;11.18;100.00
52927;BME280;40783;49.710;8.842;2023-04-28T07:19:45;98704.94;;;11.12;100.00
52927;BME280;40783;49.710;8.842;2023-04-28T07:22:10;98697.78;;;11.12;100.00
52927;BME280;40783;49.710;8.842;2023-04-28T07:24:35;98698.56;;;11.21;100.00
52927;BME280;40783;49.710;8.842;2023-04-28T07:27:01;98702.69;;;11.32;100.00
52927;BME280;40783;49.710;8.842;2023-04-28T07:29:27;98706.16;;;11.41;100.00
52927;BME280;40783;49.710;8.842;2023-04-28T07:31:58;98703.88;;;11.30;100.00
52927;BME280;40783;49.710;8.842;2023-04-28T07:34:26;98695.91;;;11.53;100.00
52927;BME280;40783;49.710;8.842;2023-04-28T07:37:15;98692.56;;;11.51;100.00
52927;BME280;40783;49.710;8.842;2023-04-28T07:39:43;98698.13;;;11.72;100.00
52927;BME280;40783;49.710;8.842;2023-04-28T07:42:09;98704.31;;;11.73;100.00
52927;BME280;40783;49.710;8.842;2023-04-28T07:44:36;98695.03;;;11.84;100.00
52927;BME280;40783;49.710;8.842;2023-04-28T07:47:02;98691.34;;;11.85;100.00
52927;BME280;40783;49.710;8.842;2023-04-28T07:49:30;98683.91;;;11.95;100.00
52927;BME280;40783;49.710;8.842;2023-04-28T07:51:59;98680.13;;;12.13;100.00
52927;BME280;40783;49.710;8.842;2023-04-28T07:54:24;98678.38;;;12.20;100.00
52927;BME280;40783;49.710;8.842;2023-04-28T07:56:49;98674.09;;;12.34;100.00
52927;BME280;40783;49.710;8.842;2023-04-28T07:59:15;98665.97;;;12.42;100.00
52927;BME280;40783;49.710;8.842;2023-04-28T08:01:45;98669.75;;;12.48;100.00
52927;BME280;40783;49.710;8.842;2023-04-28T08:04:10;98684.56;;;12.44;100.00
52927;BME280;40783;49.710;8.842;2023-04-28T08:06:37;98681.00;;;12.28;100.00
52927;BME280;40783;49.710;8.842;2023-04-28T08:09:03;98675.16;;;12.25;100.00
52927;BME280;40783;49.710;8.842;2023-04-28T08:11:30;98673.47;;;12.09;100.00
52927;BME280;40783;49.710;8.842;2023-04-28T08:13:55;98677.81;;;12.10;100.00
52927;BME280;40783;49.710;8.842;2023-04-28T08:16:27;98685.19;;;12.08;100.00
52927;BME280;40783;49.710;8.842;2023-04-28T08:18:52;98693.63;;;11.96;100.00
52927;BME280;40783;49.710;8.842;2023-04-28T08:21:20;98699.63;;;12.07;100.00
52927;BME280;40783;49.710;8.842;2023-04-28T08:23:45;98686.88;;;12.09;100.00
52927;BME280;40783;49.710;8.842;2023-04-28T08:26:10;98684.94;;;11.94;100.00
52927;BME280;40783;49.710;8.842;2023-04-28T08:28:36;98697.44;;;12.02;100.00
52927;BME280;40783;49.710;8.842;2023-04-28T08:31:01;98713.03;;;11.98;100.00
52927;BME280;40783;49.710;8.842;2023-04-28T08:33:27;98697.94;;;12.06;100.00
52927;BME280;40783;49.710;8.842;2023-04-28T08:35:54;98696.38;;;12.11;100.00
52927;BME280;40783;49.710;8.842;2023-04-28T08:38:21;98693.19;;;12.16;100.00
52927;BME280;40783;49.710;8.842;2023-04-28T08:40:50;98676.91;;;12.17;100.00
52927;BME280;40783;49.710;8.842;2023-04-28T08:43:21;98684.75;;;12.19;100.00
52927;BME280;40783;49.710;8.842;2023-04-28T08:45:49;98700.84;;;12.19;100.00
52927;BME280;40783;49.710;8.842;2023-04-28T08:48:21;98707.03;;;12.20;100.00
52927;BME280;40783;49.710;8.842;2023-04-28T08:50:52;98697.63;;;12.24;100.00
52927;BME280;40783;49.710;8.842;2023-04-28T08:53:23;98687.88;;;12.46;100.00
52927;BME280;40783;49.710;8.842;2023-04-28T08:55:54;98691.78;;;12.58;100.00
52927;BME280;40783;49.710;8.842;2023-04-28T08:58:22;98697.75;;;12.69;100.00
52927;BME280;40783;49.710;8.842;2023-04-28T09:00:48;98707.75;;;12.52;100.00
52927;BME280;40783;49.710;8.842;2023-04-28T09:03:14;98705.88;;;12.60;100.00
52927;BME280;40783;49.710;8.842;2023-04-28T09:05:39;98706.03;;;12.74;100.00
52927;BME280;40783;49.710;8.842;2023-04-28T09:08:04;98707.53;;;12.91;100.00
52927;BME280;40783;49.710;8.842;2023-04-28T09:10:30;98696.00;;;12.91;100.00
52927;BME280;40783;49.710;8.842;2023-04-28T09:12:55;98703.47;;;12.96;100.00
52927;BME280;40783;49.710;8.842;2023-04-28T09:17:53;98700.91;;;13.17;100.00
52927;BME280;40783;49.710;8.842;2023-04-28T09:20:22;98707.94;;;13.18;100.00
52927;BME280;40783;49.710;8.842;2023-04-28T09:22:48;98700.06;;;13.47;100.00
52927;BME280;40783;49.710;8.842;2023-04-28T09:25:15;98704.75;;;13.60;100.00
52927;BME280;40783;49.710;8.842;2023-04-28T09:27:40;98699.75;;;13.57;100.00
52927;BME280;40783;49.710;8.842;2023-04-28T09:30:06;98689.81;;;13.57;100.00
52927;BME280;40783;49.710;8.842;2023-04-28T09:32:32;98702.31;;;13.65;100.00
52927;BME280;40783;49.710;8.842;2023-04-28T09:35:03;98694.16;;;13.73;100.00
52927;BME280;40783;49.710;8.842;2023-04-28T09:37:32;98699.16;;;13.76;100.00
52927;BME280;40783;49.710;8.842;2023-04-28T09:40:09;98695.56;;;13.91;100.00
52927;BME280;40783;49.710;8.842;2023-04-28T09:42:43;98700.56;;;13.94;100.00
52927;BME280;40783;49.710;8.842;2023-04-28T09:45:13;98694.88;;;14.04;100.00
52927;BME280;40783;49.710;8.842;2023-04-28T09:47:43;98691.59;;;14.08;100.00
52927;BME280;40783;49.710;8.842;2023-04-28T09:50:13;98694.53;;;13.92;100.00
52927;BME280;40783;49.710;8.842;2023-04-28T09:52:44;98705.03;;;13.87;100.00
52927;BME280;40783;49.710;8.842;2023-04-28T09:55:12;98700.66;;;13.86;100.00
52927;BME280;40783;49.710;8.842;2023-04-28T09:57:38;98696.22;;;14.15;100.00
52927;BME280;40783;49.710;8.842;2023-04-28T10:00:06;98699.66;;;14.30;100.00
52927;BME280;40783;49.710;8.842;2023-04-28T10:02:37;98705.44;;;14.05;100.00
52927;BME280;40783;49.710;8.842;2023-04-28T10:05:02;98709.78;;;14.06;100.00
52927;BME280;40783;49.710;8.842;2023-04-28T10:07:31;98701.47;;;14.01;100.00
52927;BME280;40783;49.710;8.842;2023-04-28T10:09:59;98707.16;;;13.91;100.00
52927;BME280;40783;49.710;8.842;2023-04-28T10:12:26;98705.00;;;14.02;100.00
52927;BME280;40783;49.710;8.842;2023-04-28T10:14:54;98708.25;;;14.19;100.00
52927;BME280;40783;49.710;8.842;2023-04-28T10:17:21;98710.72;;;14.20;100.00
52927;BME280;40783;49.710;8.842;2023-04-28T10:19:49;98701.47;;;14.01;100.00
52927;BME280;40783;49.710;8.842;2023-04-28T10:25:36;98702.09;;;14.25;100.00
52927;BME280;40783;49.710;8.842;2023-04-28T10:28:08;98705.44;;;14.27;100.00
52927;BME280;40783;49.710;8.842;2023-04-28T10:30:33;98697.94;;;14.22;100.00
52927;BME280;40783;49.710;8.842;2023-04-28T10:33:29;98706.75;;;14.16;100.00
52927;BME280;40783;49.710;8.842;2023-04-28T10:35:57;98701.31;;;13.88;100.00
52927;BME280;40783;49.710;8.842;2023-04-28T10:38:22;98710.50;;;13.93;100.00
52927;BME280;40783;49.710;8.842;2023-04-28T10:40:51;98695.94;;;13.88;100.00
52927;BME280;40783;49.710;8.842;2023-04-28T10:56:14;98697.97;;;13.86;100.00
52927;BME280;40783;49.710;8.842;2023-04-28T10:58:41;98700.94;;;13.91;100.00
52927;BME280;40783;49.710;8.842;2023-04-28T11:06:28;98685.28;;;13.94;100.00
52927;BME280;40783;49.710;8.842;2023-04-28T11:08:58;98694.66;;;14.05;100.00
52927;BME280;40783;49.710;8.842;2023-04-28T11:11:30;98691.97;;;14.05;100.00
52927;BME280;40783;49.710;8.842;2023-04-28T11:17:03;98684.59;;;14.14;100.00
52927;BME280;40783;49.710;8.842;2023-04-28T11:19:40;98695.31;;;14.07;100.00
52927;BME280;40783;49.710;8.842;2023-04-28T11:22:19;98700.69;;;14.07;100.00
52927;BME280;40783;49.710;8.842;2023-04-28T11:25:01;98700.31;;;14.10;100.00
52927;BME280;40783;49.710;8.842;2023-04-28T11:27:28;98703.63;;;14.13;100.00
52927;BME280;40783;49.710;8.842;2023-04-28T11:29:54;98693.25;;;14.09;100.00
52927;BME280;40783;49.710;8.842;2023-04-28T11:32:33;98706.44;;;14.04;100.00
52927;BME280;40783;49.710;8.842;2023-04-28T11:34:58;98707.22;;;13.98;100.00
52927;BME280;40783;49.710;8.842;2023-04-28T11:37:26;98703.34;;;13.86;100.00
52927;BME280;40783;49.710;8.842;2023-04-28T11:39:51;98711.69;;;13.69;100.00
52927;BME280;40783;49.710;8.842;2023-04-28T11:42:19;98707.53;;;13.52;100.00
52927;BME280;40783;49.710;8.842;2023-04-28T11:44:53;98703.16;;;13.65;100.00
52927;BME280;40783;49.710;8.842;2023-04-28T11:47:33;98700.94;;;13.91;100.00
52927;BME280;40783;49.710;8.842;2023-04-28T11:49:59;98699.78;;;14.00;100.00
52927;BME280;40783;49.710;8.842;2023-04-28T11:52:25;98701.97;;;14.12;100.00
52927;BME280;40783;49.710;8.842;2023-04-28T11:55:00;98704.56;;;14.05;100.00
52927;BME280;40783;49.710;8.842;2023-04-28T11:57:26;98697.38;;;14.05;100.00
52927;BME280;40783;49.710;8.842;2023-04-28T12:00:11;98699.84;;;14.07;100.00
52927;BME280;40783;49.710;8.842;2023-04-28T12:02:37;98695.31;;;14.07;100.00
52927;BME280;40783;49.710;8.842;2023-04-28T12:05:07;98687.03;;;14.09;100.00
52927;BME280;40783;49.710;8.842;2023-04-28T12:07:40;98689.59;;;14.17;100.00
52927;BME280;40783;49.710;8.842;2023-04-28T12:10:14;98695.81;;;13.96;100.00
52927;BME280;40783;49.710;8.842;2023-04-28T12:12:40;98697.88;;;13.94;100.00
52927;BME280;40783;49.710;8.842;2023-04-28T12:15:07;98700.94;;;13.91;100.00
52927;BME280;40783;49.710;8.842;2023-04-28T12:17:38;98700.03;;;13.84;100.00
52927;BME280;40783;49.710;8.842;2023-04-28T12:20:08;98699.28;;;13.90;100.00
52927;BME280;40783;49.710;8.842;2023-04-28T12:22:44;98687.38;;;13.99;100.00
52927;BME280;40783;49.710;8.842;2023-04-28T12:25:12;98697.25;;;14.14;100.00
52927;BME280;40783;49.710;8.842;2023-04-28T12:27:38;98695.91;;;14.31;100.00
52927;BME280;40783;49.710;8.842;2023-04-28T12:32:49;98694.81;;;14.69;100.00
52927;BME280;40783;49.710;8.842;2023-04-28T12:35:15;98689.66;;;14.74;100.00
52927;BME280;40783;49.710;8.842;2023-04-28T12:37:43;98692.28;;;14.67;100.00
52927;BME280;40783;49.710;8.842;2023-04-28T12:40:09;98688.00;;;14.73;100.00
52927;BME280;40783;49.710;8.842;2023-04-28T12:42:44;98693.44;;;14.80;100.00
52927;BME280;40783;49.710;8.842;2023-04-28T12:45:09;98700.66;;;15.08;100.00
52927;BME280;40783;49.710;8.842;2023-04-28T12:47:35;98698.19;;;15.13;100.00
52927;BME280;40783;49.710;8.842;2023-04-28T12:50:01;98696.91;;;15.09;100.00
52927;BME280;40783;49.710;8.842;2023-04-28T12:52:27;98702.69;;;14.99;100.00
52927;BME280;40783;49.710;8.842;2023-04-28T12:54:52;98706.97;;;14.93;100.00
52927;BME280;40783;49.710;8.842;2023-04-28T12:57:20;98717.03;;;14.78;100.00
52927;BME280;40783;49.710;8.842;2023-04-28T12:59:46;98708.97;;;14.78;100.00
52927;BME280;40783;49.710;8.842;2023-04-28T13:02:14;98698.84;;;14.80;100.00
52927;BME280;40783;49.710;8.842;2023-04-28T13:04:40;98700.94;;;14.91;100.00
52927;BME280;40783;49.710;8.842;2023-04-28T13:07:10;98690.13;;;14.78;100.00
52927;BME280;40783;49.710;8.842;2023-04-28T13:09:36;98691.41;;;14.82;100.00
52927;BME280;40783;49.710;8.842;2023-04-28T13:12:02;98675.28;;;14.89;100.00
52927;BME280;40783;49.710;8.842;2023-04-28T13:14:28;98689.31;;;14.84;100.00
52927;BME280;40783;49.710;8.842;2023-04-28T13:16:53;98674.50;;;15.02;100.00
52927;BME280;40783;49.710;8.842;2023-04-28T13:19:19;98673.06;;;15.06;100.00
52927;BME280;40783;49.710;8.842;2023-04-28T13:21:46;98680.75;;;15.09;100.00